createdAt,value
2019-05-15T00:00:08.909Z,19.93
2019-05-15T00:02:40.940Z,18.60
2019-05-15T00:05:13.333Z,21.93
2019-05-15T00:07:45.027Z,18.10
2019-05-15T00:10:18.078Z,20.50
2019-05-15T00:12:50.218Z,20.10
2019-05-15T00:15:22.023Z,19.77
2019-05-15T00:17:53.922Z,19.07
2019-05-15T00:20:25.733Z,19.73
2019-05-15T00:22:58.831Z,16.63
2019-05-15T00:25:30.741Z,20.03
2019-05-15T00:28:02.698Z,17.17
2019-05-15T00:30:34.944Z,18.80
2019-05-15T00:33:09.047Z,20.30
2019-05-15T00:35:40.501Z,20.30
2019-05-15T00:38:12.307Z,20.57
2019-05-15T00:40:44.571Z,20.67
2019-05-15T00:43:18.346Z,20.37
2019-05-15T00:45:49.734Z,19.43
2019-05-15T00:48:21.542Z,18.67
2019-05-15T00:50:53.298Z,20.03
2019-05-15T00:53:25.111Z,21.73
2019-05-15T00:55:58.097Z,21.23
2019-05-15T00:58:30.467Z,20.57
2019-05-15T01:01:02.385Z,19.47
2019-05-15T01:03:34.250Z,21.70
2019-05-15T01:06:08.349Z,21.97
2019-05-15T01:08:39.961Z,21.23
2019-05-15T01:11:11.779Z,19.40
2019-05-15T01:13:43.673Z,21.63
2019-05-15T01:16:15.502Z,21.03
2019-05-15T01:18:49.172Z,22.23
2019-05-15T01:21:20.847Z,20.33
2019-05-15T01:23:52.691Z,18.73
2019-05-15T01:26:24.505Z,21.03
2019-05-15T01:28:58.271Z,18.07
2019-05-15T01:31:30.045Z,19.03
2019-05-15T01:34:02.137Z,16.67
2019-05-15T01:36:34.178Z,18.50
2019-05-15T01:39:07.968Z,17.07
2019-05-15T01:41:39.959Z,19.10
2019-05-15T01:44:11.783Z,15.90
2019-05-15T01:46:43.573Z,17.70
2019-05-15T01:49:15.431Z,18.23
2019-05-15T01:51:47.993Z,19.83
2019-05-15T01:54:19.907Z,17.37
2019-05-15T01:56:51.618Z,19.37
2019-05-15T01:59:23.388Z,17.37
2019-05-15T02:01:55.249Z,21.07
2019-05-15T02:04:29.021Z,18.17
2019-05-15T02:07:00.838Z,18.60
2019-05-15T02:09:31.775Z,16.97
2019-05-15T02:12:03.621Z,15.63
2019-05-15T02:14:35.527Z,22.83
2019-05-15T02:17:08.491Z,19.07
2019-05-15T02:19:40.356Z,21.33
2019-05-15T02:22:12.605Z,22.20
2019-05-15T02:24:44.492Z,22.97
2019-05-15T02:27:18.611Z,19.77
2019-05-15T02:29:50.029Z,19.77
2019-05-15T02:32:21.968Z,21.13
2019-05-15T02:34:53.779Z,20.23
2019-05-15T02:37:29.110Z,16.03
2019-05-15T02:39:59.304Z,19.17
2019-05-15T02:42:31.327Z,19.20
2019-05-15T02:45:03.319Z,21.07
2019-05-15T02:47:35.130Z,19.23
2019-05-15T02:50:10.731Z,18.80
2019-05-15T02:52:45.094Z,19.07
2019-05-15T02:55:15.372Z,16.60
2019-05-15T02:57:49.474Z,16.07
2019-05-15T03:00:36.114Z,20.33
2019-05-15T03:02:54.484Z,18.30
2019-05-15T03:05:29.305Z,22.50
2019-05-15T03:08:00.195Z,19.37
2019-05-15T03:10:32.457Z,20.70
2019-05-15T03:13:04.436Z,17.83
2019-05-15T03:15:39.750Z,20.83
2019-05-15T03:18:10.251Z,20.40
2019-05-15T03:20:42.304Z,19.80
2019-05-15T03:23:14.246Z,21.47
2019-05-15T03:25:48.918Z,16.17
2019-05-15T03:28:20.120Z,19.77
2019-05-15T03:31:15.790Z,18.57
2019-05-15T03:33:29.954Z,16.63
2019-05-15T03:36:02.501Z,19.30
2019-05-15T03:38:33.436Z,18.53
2019-05-15T03:41:05.153Z,19.50
2019-05-15T03:43:39.323Z,18.13
2019-05-15T03:46:10.621Z,10.90
2019-05-15T03:48:42.436Z,17.30
2019-05-15T03:51:14.473Z,19.10
2019-05-15T03:53:49.475Z,16.03
2019-05-15T03:56:20.067Z,13.37
2019-05-15T03:58:52.273Z,17.00
2019-05-15T04:01:33.531Z,18.47
2019-05-15T04:03:59.857Z,16.60
2019-05-15T04:06:31.545Z,15.97
2019-05-15T04:09:05.866Z,16.23
2019-05-15T04:11:38.858Z,12.77
2019-05-15T04:14:10.970Z,12.07
2019-05-15T04:16:43.066Z,14.67
2019-05-15T04:19:15.332Z,16.47
2019-05-15T04:21:49.401Z,20.43
2019-05-15T04:24:21.347Z,15.90
2019-05-15T04:26:54.382Z,16.87
2019-05-15T04:29:28.924Z,16.30
2019-05-15T04:32:05.328Z,15.23
2019-05-15T04:34:33.813Z,16.40
2019-05-15T04:37:05.565Z,16.57
2019-05-15T04:39:40.095Z,14.30
2019-05-15T04:42:12.395Z,9.67
2019-05-15T04:44:44.300Z,13.83
2019-05-15T04:47:19.041Z,17.83
2019-05-15T04:49:50.555Z,16.80
2019-05-15T04:52:22.943Z,16.40
2019-05-15T04:54:55.219Z,15.70
2019-05-15T04:57:32.988Z,14.60
2019-05-15T05:00:01.190Z,17.40
2019-05-15T05:02:33.435Z,18.33
2019-05-15T05:05:09.654Z,18.17
2019-05-15T05:07:40.369Z,13.30
2019-05-15T05:10:12.339Z,17.63
2019-05-15T05:12:44.400Z,17.00
2019-05-15T05:15:18.840Z,16.00
2019-05-15T05:17:50.031Z,16.03
2019-05-15T05:20:22.206Z,15.27
2019-05-15T05:22:54.599Z,15.87
2019-05-15T05:25:27.933Z,16.53
2019-05-15T05:28:00.135Z,16.50
2019-05-15T05:30:32.099Z,17.20
2019-05-15T05:33:04.904Z,14.93
2019-05-15T05:35:38.701Z,14.47
2019-05-15T05:38:10.450Z,9.57
2019-05-15T05:40:42.631Z,16.13
2019-05-15T05:43:14.646Z,13.03
2019-05-15T05:45:49.019Z,14.03
2019-05-15T05:48:20.529Z,12.73
2019-05-15T05:50:53.872Z,17.23
2019-05-15T05:53:26.009Z,16.90
2019-05-15T05:55:58.267Z,15.40
2019-05-15T05:58:30.043Z,15.30
2019-05-15T06:01:02.199Z,13.93
2019-05-15T06:03:34.403Z,16.10
2019-05-15T06:06:09.406Z,15.53
2019-05-15T06:08:41.965Z,15.13
2019-05-15T06:11:14.091Z,14.73
2019-05-15T06:13:45.702Z,15.77
2019-05-15T06:16:19.018Z,15.43
2019-05-15T06:18:51.158Z,13.37
2019-05-15T06:21:23.315Z,14.50
2019-05-15T06:23:58.121Z,15.43
2019-05-15T06:26:29.215Z,12.87
2019-05-15T06:29:01.400Z,16.13
2019-05-15T06:31:33.595Z,14.90
2019-05-15T06:34:05.734Z,9.67
2019-05-15T06:36:39.338Z,11.13
2019-05-15T06:39:11.799Z,13.73
2019-05-15T06:41:43.873Z,14.83
2019-05-15T06:44:18.563Z,14.93
2019-05-15T06:46:49.959Z,13.87
2019-05-15T06:49:22.375Z,11.10
2019-05-15T06:51:54.637Z,11.10
2019-05-15T06:54:28.410Z,13.23
2019-05-15T06:57:00.684Z,12.73
2019-05-15T06:59:33.133Z,13.13
2019-05-15T07:02:05.017Z,14.50
2019-05-15T07:04:38.365Z,15.10
2019-05-15T07:07:11.258Z,12.17
2019-05-15T07:09:44.155Z,12.83
2019-05-15T07:12:18.707Z,12.90
2019-05-15T07:14:50.606Z,12.90
2019-05-15T07:17:23.277Z,15.27
2019-05-15T07:20:03.976Z,13.33
2019-05-15T07:22:38.823Z,11.90
2019-05-15T07:25:10.287Z,9.57
2019-05-15T07:27:42.326Z,13.27
2019-05-15T07:30:14.459Z,12.10
2019-05-15T07:32:48.747Z,10.73
2019-05-15T07:35:24.299Z,13.00
2019-05-15T07:37:58.481Z,12.33
2019-05-15T07:40:30.093Z,11.93
2019-05-15T07:43:02.451Z,12.17
2019-05-15T07:45:34.637Z,12.40
2019-05-15T07:48:09.021Z,11.63
2019-05-15T07:50:40.561Z,16.67
2019-05-15T07:53:12.762Z,14.27
2019-05-15T07:55:44.866Z,13.27
2019-05-15T07:58:21.559Z,9.87
2019-05-15T08:00:50.460Z,11.03
2019-05-15T08:03:22.688Z,13.00
2019-05-15T08:05:59.067Z,11.53
2019-05-15T08:08:29.057Z,11.97
2019-05-15T08:11:16.084Z,10.27
2019-05-15T08:13:43.151Z,9.97
2019-05-15T08:16:17.955Z,11.90
2019-05-15T08:18:49.248Z,11.63
2019-05-15T08:21:21.329Z,10.93
2019-05-15T08:23:53.255Z,10.37
2019-05-15T08:26:28.328Z,10.57
2019-05-15T08:29:00.587Z,11.23
2019-05-15T08:31:33.105Z,11.63
2019-05-15T08:34:13.623Z,11.67
2019-05-15T08:36:48.306Z,11.17
2019-05-15T08:39:21.139Z,12.07
2019-05-15T08:41:53.389Z,11.27
2019-05-15T08:44:25.408Z,12.33
2019-05-15T08:46:58.949Z,11.80
2019-05-15T08:49:31.060Z,12.10
2019-05-15T08:52:03.143Z,12.30
2019-05-15T08:54:35.135Z,12.90
2019-05-15T08:57:08.470Z,13.93
2019-05-15T08:59:40.911Z,12.10
2019-05-15T09:02:13.237Z,13.20
2019-05-15T09:04:45.229Z,15.10
2019-05-15T09:07:18.070Z,13.93
2019-05-15T09:09:50.388Z,12.00
2019-05-15T09:12:22.299Z,14.80
2019-05-15T09:14:54.223Z,13.07
2019-05-15T09:17:28.450Z,13.27
2019-05-15T09:20:08.112Z,12.87
2019-05-15T09:22:40.601Z,11.10
2019-05-15T09:25:12.846Z,13.77
2019-05-15T09:27:44.919Z,13.87
2019-05-15T09:30:18.316Z,13.53
2019-05-15T09:32:50.802Z,10.27
2019-05-15T09:35:23.147Z,13.50
2019-05-15T09:37:55.095Z,11.60
2019-05-15T09:40:42.487Z,11.83
2019-05-15T09:43:01.112Z,10.17
2019-05-15T09:45:41.126Z,12.87
2019-05-15T09:48:14.736Z,12.47
2019-05-15T09:50:49.139Z,13.00
2019-05-15T09:53:20.464Z,12.80
2019-05-15T09:55:52.576Z,13.63
2019-05-15T09:58:24.582Z,14.53
2019-05-15T10:00:56.313Z,12.30
2019-05-15T10:03:28.447Z,13.10
2019-05-15T10:06:00.749Z,11.67
2019-05-15T10:08:32.718Z,12.63
2019-05-15T10:11:04.875Z,12.27
2019-05-15T10:13:38.253Z,13.97
2019-05-15T10:16:10.357Z,11.53
2019-05-15T10:18:42.747Z,12.97
2019-05-15T10:21:15.093Z,13.90
2019-05-15T10:23:49.253Z,9.97
2019-05-15T10:26:20.531Z,12.07
2019-05-15T10:28:52.562Z,11.53
2019-05-15T10:31:24.477Z,11.60
2019-05-15T10:33:58.263Z,10.73
2019-05-15T10:36:29.969Z,10.30
2019-05-15T10:39:02.281Z,12.10
2019-05-15T10:41:34.532Z,10.80
2019-05-15T10:44:09.062Z,7.97
2019-05-15T10:46:41.471Z,8.77
2019-05-15T10:49:13.548Z,8.10
2019-05-15T10:51:45.398Z,7.97
2019-05-15T10:54:19.298Z,7.93
2019-05-15T10:56:51.163Z,7.73
2019-05-15T10:59:23.434Z,6.80
2019-05-15T11:01:55.395Z,7.10
2019-05-15T11:04:28.851Z,7.33
2019-05-15T11:07:02.100Z,5.90
2019-05-15T11:09:34.064Z,5.27
2019-05-15T11:12:08.607Z,5.27
2019-05-15T11:14:41.073Z,7.10
2019-05-15T11:17:13.084Z,7.20
2019-05-15T11:19:49.480Z,6.43
2019-05-15T11:22:19.166Z,6.20
2019-05-15T11:24:53.050Z,7.93
2019-05-15T11:27:28.368Z,7.97
2019-05-15T11:29:59.213Z,10.00
2019-05-15T11:32:31.705Z,8.17
2019-05-15T11:35:04.695Z,8.50
2019-05-15T11:37:43.890Z,9.67
2019-05-15T11:40:11.376Z,11.53
2019-05-15T11:42:44.287Z,10.40
2019-05-15T11:45:18.611Z,10.33
2019-05-15T11:47:50.988Z,12.27
2019-05-15T11:50:24.723Z,11.50
2019-05-15T11:52:58.546Z,11.80
2019-05-15T11:55:30.417Z,11.53
2019-05-15T11:58:02.753Z,11.50
2019-05-15T12:00:34.610Z,10.73
2019-05-15T12:03:08.953Z,12.43
2019-05-15T12:05:41.229Z,9.70
2019-05-15T12:08:13.178Z,9.40
2019-05-15T12:10:46.020Z,11.43
2019-05-15T12:13:18.980Z,12.93
2019-05-15T12:15:51.609Z,11.43
2019-05-15T12:18:24.025Z,8.27
2019-05-15T12:20:58.802Z,11.17
2019-05-15T12:23:29.471Z,10.23
2019-05-15T12:26:02.212Z,10.97
2019-05-15T12:28:35.073Z,9.80
2019-05-15T12:31:08.992Z,10.67
2019-05-15T12:33:41.059Z,9.40
2019-05-15T12:36:13.197Z,9.87
2019-05-15T12:38:50.022Z,10.27
2019-05-15T13:01:58.513Z,8.63
2019-05-15T13:04:30.629Z,8.20
2019-05-15T13:07:12.689Z,6.80
2019-05-15T13:09:38.160Z,7.90
2019-05-15T13:12:10.361Z,8.80
2019-05-15T13:14:43.301Z,6.80
2019-05-15T13:17:15.567Z,7.50
2019-05-15T13:19:48.409Z,7.03
2019-05-15T13:22:24.640Z,6.07
2019-05-15T13:24:54.163Z,5.53
2019-05-15T13:27:26.145Z,8.23
2019-05-15T13:30:08.796Z,6.97
2019-05-15T13:32:41.343Z,8.40
2019-05-15T13:35:14.026Z,8.17
2019-05-15T13:37:46.066Z,7.23
2019-05-15T13:40:18.780Z,6.17
2019-05-15T13:42:52.665Z,7.00
2019-05-15T13:45:24.904Z,13.27
2019-05-15T13:47:57.218Z,7.97
2019-05-15T13:50:39.739Z,8.97
2019-05-15T13:53:11.291Z,7.20
2019-05-15T13:55:43.482Z,5.20
2019-05-15T13:58:15.564Z,7.47
2019-05-15T14:00:58.512Z,7.00
2019-05-15T14:03:55.297Z,7.27
2019-05-15T14:06:28.634Z,6.80
2019-05-15T14:09:01.043Z,8.37
2019-05-15T14:11:33.131Z,6.60
2019-05-15T14:14:05.431Z,6.40
2019-05-15T14:16:38.556Z,8.90
2019-05-15T14:19:19.614Z,7.90
2019-05-15T14:21:59.443Z,9.70
2019-05-15T14:24:31.556Z,7.67
2019-05-15T14:27:11.543Z,8.90
2019-05-15T14:29:44.623Z,7.47
2019-05-15T14:32:22.745Z,7.10
2019-05-15T14:34:58.503Z,7.87
2019-05-15T14:37:30.888Z,9.60
2019-05-15T14:40:03.162Z,6.90
2019-05-15T14:42:34.610Z,6.37
2019-05-15T14:45:08.741Z,6.67
2019-05-15T14:47:49.199Z,8.70
2019-05-15T14:50:21.642Z,7.60
2019-05-15T14:52:54.080Z,7.47
2019-05-15T14:55:34.706Z,7.63
2019-05-15T14:58:08.309Z,8.80
2019-05-15T15:00:41.488Z,8.77
2019-05-15T15:03:13.839Z,8.10
2019-05-15T15:05:45.441Z,8.93
2019-05-15T15:08:24.658Z,9.40
2019-05-15T15:10:51.539Z,6.73
2019-05-15T15:13:24.253Z,9.17
2019-05-15T15:15:58.905Z,10.80
2019-05-15T15:18:30.708Z,11.57
2019-05-15T15:21:02.589Z,10.80
2019-05-15T15:23:34.911Z,11.47
2019-05-15T15:26:08.235Z,11.07
2019-05-15T15:28:40.654Z,11.20
2019-05-15T15:31:13.620Z,10.47
2019-05-15T15:33:53.430Z,10.53
2019-05-15T15:36:25.111Z,9.97
2019-05-15T15:39:00.691Z,12.27
2019-05-15T15:41:32.755Z,11.10
2019-05-15T15:44:05.284Z,12.83
2019-05-15T15:46:39.532Z,10.87
2019-05-15T15:49:11.355Z,10.93
2019-05-15T15:51:43.216Z,17.00
2019-05-15T15:54:15.499Z,12.97
2019-05-15T15:56:48.551Z,13.73
2019-05-15T15:59:21.017Z,14.63
2019-05-15T16:01:53.408Z,13.30
2019-05-15T16:04:25.112Z,14.97
2019-05-15T16:06:58.924Z,15.67
2019-05-15T16:09:30.984Z,14.63
2019-05-15T16:12:03.252Z,15.10
2019-05-15T16:14:37.987Z,15.50
2019-05-15T16:17:08.951Z,16.30
2019-05-15T16:19:54.275Z,18.60
2019-05-15T16:22:28.699Z,18.27
2019-05-15T16:25:02.366Z,19.77
2019-05-15T16:27:34.827Z,19.77
2019-05-15T16:30:08.256Z,21.47
2019-05-15T16:32:48.631Z,20.07
2019-05-15T16:35:29.912Z,18.07
2019-05-15T16:38:02.378Z,17.97
2019-05-15T16:40:34.771Z,18.13
2019-05-15T16:43:06.990Z,21.27
2019-05-15T16:45:49.647Z,24.00
2019-05-15T16:48:21.019Z,23.93
2019-05-15T16:51:00.651Z,24.57
2019-05-15T16:53:32.773Z,25.90
2019-05-15T16:56:05.263Z,29.03
2019-05-15T16:58:38.534Z,30.33
2019-05-15T17:01:10.833Z,32.23
2019-05-15T17:03:43.010Z,28.93
2019-05-15T17:06:14.951Z,30.70
2019-05-15T17:08:48.771Z,30.43
2019-05-15T17:11:20.870Z,31.57
2019-05-15T17:13:52.872Z,28.13
2019-05-15T17:16:25.169Z,32.27
2019-05-15T17:18:58.108Z,33.27
2019-05-15T17:21:30.569Z,32.60
2019-05-15T17:24:02.457Z,34.73
2019-05-15T17:26:34.788Z,30.40
2019-05-15T17:29:08.885Z,34.87
2019-05-15T17:31:42.384Z,32.43
2019-05-15T17:34:14.577Z,35.80
2019-05-15T17:36:48.875Z,31.87
2019-05-15T17:39:33.461Z,25.70
2019-05-15T17:41:53.964Z,33.57
2019-05-15T17:44:28.503Z,34.50
2019-05-15T17:46:59.885Z,29.60
2019-05-15T17:49:31.849Z,35.33
2019-05-15T17:52:03.772Z,35.13
2019-05-15T17:54:37.957Z,34.57
2019-05-15T17:57:10.054Z,35.80
2019-05-15T17:59:42.105Z,38.17
2019-05-15T18:02:14.309Z,33.43
2019-05-15T18:04:54.211Z,34.90
2019-05-15T18:07:28.044Z,26.93
2019-05-15T18:10:00.138Z,26.17
2019-05-15T18:12:32.491Z,29.03
2019-05-15T18:15:05.192Z,33.03
2019-05-15T18:17:39.128Z,32.70
2019-05-15T18:20:11.094Z,33.50
2019-05-15T18:22:43.734Z,32.43
2019-05-15T18:25:18.140Z,31.73
2019-05-15T18:27:50.177Z,31.07
2019-05-15T18:30:21.744Z,30.37
2019-05-15T18:32:54.246Z,30.13
2019-05-15T18:35:26.311Z,30.97
2019-05-15T18:37:59.166Z,30.13
2019-05-15T18:40:31.384Z,28.60
2019-05-15T18:43:03.258Z,30.27
2019-05-15T18:45:35.273Z,32.13
2019-05-15T18:48:07.249Z,31.93
2019-05-15T18:50:39.234Z,31.60
2019-05-15T18:53:11.327Z,31.00
2019-05-15T18:55:43.468Z,28.83
2019-05-15T18:58:18.760Z,31.17
2019-05-15T19:00:49.817Z,28.37
2019-05-15T19:03:22.849Z,31.07
2019-05-15T19:05:55.141Z,31.83
2019-05-15T19:08:28.207Z,29.90
2019-05-15T19:11:01.024Z,31.00
2019-05-15T19:13:33.308Z,31.60
2019-05-15T19:16:05.329Z,30.80
2019-05-15T19:18:38.535Z,30.87
2019-05-15T19:21:10.788Z,34.40
2019-05-15T19:23:42.928Z,33.27
2019-05-15T19:26:14.863Z,32.60
2019-05-15T19:28:48.604Z,27.77
2019-05-15T19:31:26.787Z,29.97
2019-05-15T19:33:54.389Z,32.87
2019-05-15T19:36:27.716Z,30.03
2019-05-15T19:38:59.766Z,31.20
2019-05-15T19:41:31.955Z,31.17
2019-05-15T19:44:04.182Z,31.10
2019-05-15T19:46:38.502Z,31.30
2019-05-15T19:49:09.706Z,30.63
2019-05-15T19:51:41.610Z,32.07
2019-05-15T19:54:13.598Z,30.17
2019-05-15T19:56:45.500Z,33.47
2019-05-15T19:59:22.381Z,31.17
2019-05-15T20:01:51.320Z,30.57
2019-05-15T20:04:23.939Z,34.40
2019-05-15T20:06:55.705Z,30.13
2019-05-15T20:09:27.891Z,31.10
2019-05-15T20:11:59.888Z,33.73
2019-05-15T20:14:32.898Z,34.03
2019-05-15T20:17:05.090Z,34.20
2019-05-15T20:19:38.226Z,32.57
2019-05-15T20:22:10.280Z,32.37
2019-05-15T20:24:43.501Z,35.60
2019-05-15T20:27:15.691Z,26.90
2019-05-15T20:29:48.664Z,32.83
2019-05-15T20:32:20.832Z,33.83
2019-05-15T20:34:52.680Z,31.33
2019-05-15T20:37:24.582Z,31.63
2019-05-15T20:39:58.291Z,34.20
2019-05-15T20:42:30.128Z,32.57
2019-05-15T20:45:02.183Z,34.50
2019-05-15T20:47:34.028Z,33.30
2019-05-15T20:50:08.448Z,36.37
2019-05-15T20:52:40.254Z,34.13
2019-05-15T20:55:12.526Z,33.17
2019-05-15T20:57:44.453Z,35.93
2019-05-15T21:00:19.167Z,36.47
2019-05-15T21:02:51.114Z,33.60
2019-05-15T21:05:23.533Z,37.27
2019-05-15T21:07:55.468Z,36.87
2019-05-15T21:10:27.530Z,36.50
2019-05-15T21:13:00.821Z,36.73
2019-05-15T21:15:32.736Z,34.43
2019-05-15T21:18:13.591Z,38.00
2019-05-15T21:20:38.379Z,38.33
2019-05-15T21:23:10.597Z,35.10
2019-05-15T21:25:42.811Z,36.17
2019-05-15T21:28:14.766Z,37.37
2019-05-15T21:30:49.237Z,36.17
2019-05-15T21:33:20.250Z,38.00
2019-05-15T21:35:52.278Z,35.03
2019-05-15T21:38:24.108Z,36.47
2019-05-15T21:40:58.433Z,34.20
2019-05-15T21:43:29.694Z,33.20
2019-05-15T21:46:01.537Z,33.27
2019-05-15T21:48:33.153Z,35.77
2019-05-15T21:51:05.211Z,37.17
2019-05-15T21:53:38.874Z,34.70
2019-05-15T21:56:10.432Z,33.97
2019-05-15T21:58:42.253Z,32.53
2019-05-15T22:01:14.551Z,31.57
2019-05-15T22:03:48.195Z,35.30
2019-05-15T22:06:20.362Z,33.17
2019-05-15T22:08:52.234Z,32.33
2019-05-15T22:11:24.369Z,35.27
2019-05-15T22:13:58.548Z,30.90
2019-05-15T22:16:29.838Z,32.20
2019-05-15T22:19:01.644Z,32.97
2019-05-15T22:21:33.466Z,33.50
2019-05-15T22:24:05.963Z,33.13
2019-05-15T22:26:38.370Z,41.70
2019-05-15T22:29:10.583Z,32.83
2019-05-15T22:31:42.503Z,31.33
2019-05-15T22:34:14.443Z,31.57
2019-05-15T22:36:48.783Z,31.87
2019-05-15T22:39:19.669Z,33.00
2019-05-15T22:41:51.610Z,29.70
2019-05-15T22:44:23.469Z,30.77
2019-05-15T22:46:55.296Z,27.30
2019-05-15T22:49:28.847Z,29.57
2019-05-15T22:52:00.973Z,29.77
2019-05-15T22:54:32.896Z,30.70
2019-05-15T22:57:05.467Z,29.60
2019-05-15T22:59:38.286Z,27.83
2019-05-15T23:02:10.212Z,28.73
2019-05-15T23:04:42.003Z,26.63
2019-05-15T23:07:14.056Z,30.47
2019-05-15T23:09:45.937Z,28.37
2019-05-15T23:12:18.296Z,27.87
2019-05-15T23:14:49.934Z,30.97
2019-05-15T23:17:21.758Z,31.07
2019-05-15T23:19:53.572Z,27.73
2019-05-15T23:22:25.303Z,29.73
2019-05-15T23:24:58.548Z,30.30
2019-05-15T23:27:30.364Z,27.87
2019-05-15T23:30:10.478Z,28.70
2019-05-15T23:32:42.219Z,28.50
2019-05-15T23:35:14.246Z,26.93
2019-05-15T23:37:48.437Z,27.80
2019-05-15T23:40:19.641Z,27.47
2019-05-15T23:42:51.258Z,28.63
2019-05-15T23:45:23.071Z,25.73
2019-05-15T23:47:54.549Z,26.43
2019-05-15T23:50:28.638Z,28.17
2019-05-15T23:52:59.765Z,27.23
2019-05-15T23:55:32.003Z,26.70
2019-05-15T23:58:03.649Z,23.60
